Time;durP1;ratioP1;P1;durP2;ratioP2;P2;SDS_P1;SDS_P2;PMS_P1;PMS_P2;Temp;Humidity;BMP_temperature;BMP_pressure;BME280_temperature;BME280_humidity;BME280_pressure;Samples;Min_cycle;Max_cycle;Signal;HPM_P1;HPM_P2
2022/05/08 00:02:26;;;;;;;7.07;5.22;;;11.70;99.90;;;11.04;100.00;98183.31;4982006;28;20062;-74
2022/05/08 00:04:53;;;;;;;7.45;5.20;;;11.70;99.90;;;11.00;100.00;98186.06;4962553;28;20050;-74
2022/05/08 00:07:21;;;;;;;7.57;4.78;;;11.60;99.90;;;10.98;100.00;98183.50;4979347;28;20050;-73
2022/05/08 00:09:49;;;;;;;7.80;5.20;;;11.60;99.90;;;10.98;100.00;98178.31;4980539;28;20134;-74
2022/05/08 00:12:17;;;;;;;8.52;6.13;;;11.60;99.90;;;11.05;100.00;98184.16;4972651;28;20046;-73
2022/05/08 00:14:45;;;;;;;13.73;6.45;;;11.60;99.90;;;10.99;100.00;98185.22;4978333;28;20393;-74
2022/05/08 00:17:13;;;;;;;7.75;5.85;;;11.60;99.90;;;11.03;100.00;98179.00;4963089;28;20130;-73
2022/05/08 00:19:43;;;;;;;10.05;5.80;;;11.60;99.90;;;11.01;100.00;98175.59;4980073;28;20046;-74
2022/05/08 00:22:13;;;;;;;10.38;5.80;;;11.60;99.90;;;10.97;100.00;98176.63;4981117;28;20057;-74
2022/05/08 00:25:02;;;;;;;7.18;5.55;;;11.60;99.90;;;10.98;100.00;98175.72;4979628;28;20126;-74
2022/05/08 00:27:29;;;;;;;9.90;6.53;;;11.50;99.90;;;11.09;100.00;98175.34;4981924;28;20469;-74
2022/05/08 00:29:57;;;;;;;7.38;5.97;;;11.60;99.90;;;11.09;100.00;98171.00;4979589;28;20046;-73
2022/05/08 00:32:24;;;;;;;8.27;6.55;;;11.60;99.90;;;11.02;100.00;98166.09;4978708;28;20054;-73
2022/05/08 00:34:51;;;;;;;7.82;6.65;;;11.60;99.90;;;10.96;100.00;98169.72;4980577;28;20074;-74
2022/05/08 00:37:18;;;;;;;9.07;6.88;;;11.60;99.90;;;10.88;100.00;98164.81;4980108;28;20113;-74
2022/05/08 00:39:45;;;;;;;8.30;6.97;;;11.50;99.90;;;10.87;100.00;98177.84;4984332;28;20119;-74
2022/05/08 00:42:12;;;;;;;8.65;7.05;;;11.50;99.90;;;10.89;100.00;98173.44;4982360;28;20098;-74
2022/05/08 00:44:39;;;;;;;9.07;7.97;;;11.50;99.90;;;10.86;100.00;98171.81;4982110;28;20085;-74
2022/05/08 00:47:07;;;;;;;13.02;7.82;;;11.50;99.90;;;10.86;100.00;98169.22;4979917;28;20061;-74
2022/05/08 00:49:34;;;;;;;11.10;7.03;;;11.40;99.90;;;10.78;100.00;98160.81;4970174;28;20123;-74
2022/05/08 00:52:01;;;;;;;9.40;6.80;;;11.40;99.90;;;10.74;100.00;98159.25;4979561;28;20054;-74
2022/05/08 00:54:28;;;;;;;9.20;6.78;;;11.30;99.90;;;10.70;100.00;98165.44;4971676;28;20068;-74
2022/05/08 00:56:57;;;;;;;9.07;6.88;;;11.30;99.90;;;10.65;100.00;98165.59;4978437;28;20657;-74
2022/05/08 00:59:25;;;;;;;11.32;7.70;;;11.20;99.90;;;10.60;100.00;98166.63;4980778;28;20138;-74
2022/05/08 01:01:53;;;;;;;12.07;8.18;;;11.20;99.90;;;10.58;100.00;98163.22;4982811;28;20237;-74
2022/05/08 01:04:20;;;;;;;15.80;7.20;;;11.20;99.90;;;10.59;100.00;98159.75;4982454;28;20700;-74
2022/05/08 01:06:47;;;;;;;9.13;7.28;;;11.20;99.90;;;10.60;100.00;98157.09;4984289;28;20141;-73
2022/05/08 01:09:14;;;;;;;10.45;7.85;;;11.20;99.90;;;10.60;100.00;98164.03;4982053;28;20194;-73
2022/05/08 01:11:41;;;;;;;10.77;7.07;;;11.20;99.90;;;10.57;100.00;98165.00;4976744;28;20043;-73
2022/05/08 01:14:09;;;;;;;10.35;7.60;;;11.10;99.90;;;10.55;100.00;98163.34;4982359;28;20086;-74
2022/05/08 01:16:36;;;;;;;10.55;7.53;;;11.10;99.90;;;10.60;100.00;98164.03;4978510;28;20146;-74
2022/05/08 01:19:03;;;;;;;11.73;8.18;;;11.10;99.90;;;10.63;100.00;98163.94;4983935;28;20082;-75
2022/05/08 01:21:39;;;;;;;10.75;8.07;;;11.10;99.90;;;10.67;100.00;98160.31;4982057;28;20133;-75
2022/05/08 01:24:09;;;;;;;9.88;7.75;;;11.20;99.90;;;10.68;100.00;98162.88;4983358;28;20082;-73
2022/05/08 01:26:37;;;;;;;11.32;7.85;;;11.20;99.90;;;10.63;100.00;98159.59;4962379;28;20145;-74
2022/05/08 01:29:04;;;;;;;11.43;8.38;;;11.20;99.90;;;10.49;100.00;98148.84;4979928;28;20074;-74
2022/05/08 01:31:31;;;;;;;12.63;7.82;;;11.10;99.90;;;10.38;100.00;98150.94;4979891;28;20046;-74
2022/05/08 01:33:59;;;;;;;10.10;8.43;;;11.00;99.90;;;10.41;100.00;98156.84;4978946;28;20457;-71
2022/05/08 01:36:26;;;;;;;9.57;7.85;;;11.00;99.90;;;10.41;100.00;98156.00;4981147;28;20121;-74
2022/05/08 01:38:53;;;;;;;12.55;8.48;;;11.00;99.90;;;10.44;100.00;98154.16;4979863;28;20125;-71
2022/05/08 01:41:20;;;;;;;14.48;9.77;;;11.00;99.90;;;10.40;100.00;98149.09;4980382;28;20358;-75
2022/05/08 01:43:47;;;;;;;10.90;8.65;;;11.00;99.90;;;10.40;100.00;98160.38;4982359;28;20112;-74
2022/05/08 01:46:14;;;;;;;10.35;8.35;;;11.00;99.90;;;10.31;100.00;98155.47;4979808;28;20078;-72
2022/05/08 01:48:41;;;;;;;12.50;8.80;;;10.90;99.90;;;10.26;100.00;98158.19;4980013;28;20042;-74
2022/05/08 01:51:12;;;;;;;10.95;9.20;;;10.80;99.90;;;10.21;100.00;98154.03;4981355;28;20539;-74
2022/05/08 01:53:40;;;;;;;13.93;8.90;;;10.80;99.90;;;10.22;100.00;98151.38;4980914;28;20054;-74
2022/05/08 01:56:08;;;;;;;9.00;7.85;;;10.80;99.90;;;10.22;100.00;98155.72;4981875;28;20448;-75
2022/05/08 01:58:35;;;;;;;11.43;9.65;;;10.80;99.90;;;10.08;100.00;98156.19;4977980;28;20138;-75
2022/05/08 02:01:05;;;;;;;16.88;9.68;;;10.70;99.90;;;10.10;100.00;98156.94;4981169;28;20054;-74
2022/05/08 02:03:32;;;;;;;12.05;9.43;;;10.80;99.90;;;10.13;100.00;98159.47;4978811;28;20053;-75
2022/05/08 02:06:00;;;;;;;12.00;9.77;;;10.70;99.90;;;10.13;100.00;98156.03;4981631;28;20050;-73
2022/05/08 02:08:27;;;;;;;12.75;8.98;;;10.70;99.90;;;10.00;100.00;98155.56;4984870;28;20488;-74
2022/05/08 02:10:54;;;;;;;16.30;9.30;;;10.60;99.90;;;9.97;100.00;98153.06;4979548;28;20055;-73
2022/05/08 02:13:21;;;;;;;12.43;9.95;;;10.60;99.90;;;10.04;100.00;98157.16;4981852;28;20407;-74
2022/05/08 02:15:48;;;;;;;12.90;10.30;;;10.60;99.90;;;9.99;100.00;98161.63;4979646;28;20058;-73
2022/05/08 02:18:15;;;;;;;14.15;10.60;;;10.60;99.90;;;10.03;100.00;98165.81;4980765;28;20138;-74
2022/05/08 02:20:42;;;;;;;11.85;10.02;;;10.60;99.90;;;10.04;100.00;98163.19;4979068;28;20093;-73
2022/05/08 02:23:10;;;;;;;11.80;9.73;;;10.60;99.90;;;10.01;100.00;98165.88;4980494;28;20056;-74
2022/05/08 02:25:37;;;;;;;11.18;9.60;;;10.60;99.90;;;9.98;100.00;98165.13;4980105;28;20177;-74
2022/05/08 02:28:05;;;;;;;12.27;9.82;;;10.60;99.90;;;10.00;100.00;98166.75;4978508;28;20525;-73
2022/05/08 02:30:32;;;;;;;13.27;9.48;;;10.60;99.90;;;9.96;100.00;98169.50;4981443;28;20046;-74
2022/05/08 02:33:00;;;;;;;20.80;10.70;;;10.60;99.90;;;9.99;100.00;98167.69;4978719;28;20149;-74
2022/05/08 02:35:27;;;;;;;11.55;8.57;;;10.60;99.90;;;9.98;100.00;98165.97;4979526;28;20484;-74
2022/05/08 02:37:57;;;;;;;13.40;9.70;;;10.50;99.90;;;9.97;100.00;98168.63;4976567;28;20090;-74
2022/05/08 02:40:24;;;;;;;12.65;9.25;;;10.50;99.90;;;9.89;100.00;98162.81;4980192;28;20034;-74
2022/05/08 02:42:53;;;;;;;11.52;8.85;;;10.50;99.90;;;9.82;100.00;98162.97;4979667;28;20502;-74
2022/05/08 02:45:20;;;;;;;10.32;8.35;;;10.50;99.90;;;9.82;100.00;98165.56;4981489;28;20093;-74
2022/05/08 02:47:47;;;;;;;12.38;9.57;;;10.40;99.90;;;9.91;100.00;98161.88;4975306;28;20085;-74
2022/05/08 02:50:15;;;;;;;12.75;11.05;;;10.40;99.90;;;9.91;100.00;98166.22;4997878;28;20054;-73
2022/05/08 02:52:43;;;;;;;15.75;11.50;;;10.40;99.90;;;9.94;100.00;98163.50;4984033;28;20519;-74
2022/05/08 03:00:47;;;;;;;13.85;10.65;;;10.50;99.90;;;10.06;100.00;98163.16;4977215;28;20092;-74
2022/05/08 03:03:17;;;;;;;12.82;11.50;;;10.60;99.90;;;10.05;100.00;98167.47;4979421;28;20050;-74
2022/05/08 03:05:47;;;;;;;11.35;10.10;;;10.60;99.90;;;10.03;100.00;98160.63;4947246;28;20125;-74
2022/05/08 03:08:17;;;;;;;11.82;10.57;;;10.60;99.90;;;9.90;100.00;98162.78;4976806;28;20211;-74
2022/05/08 03:13:39;;;;;;;13.35;10.80;;;10.50;99.90;;;9.77;100.00;98164.03;4973672;28;20125;-73
2022/05/08 03:16:11;;;;;;;16.70;10.82;;;10.40;99.90;;;9.77;100.00;98164.88;4978218;28;20137;-74
2022/05/08 03:18:40;;;;;;;14.35;11.73;;;10.40;99.90;;;9.77;100.00;98164.03;4976789;28;20057;-73
2022/05/08 03:21:11;;;;;;;12.77;10.55;;;10.40;99.90;;;9.76;100.00;98170.09;4992077;28;20054;-74
2022/05/08 03:23:39;;;;;;;11.02;9.90;;;10.30;99.90;;;9.78;100.00;98163.13;4978663;28;20548;-73
2022/05/08 03:26:07;;;;;;;14.35;10.63;;;10.30;99.90;;;9.77;100.00;98170.06;4978427;28;20125;-74
2022/05/08 03:28:37;;;;;;;13.10;10.55;;;10.30;99.90;;;9.86;100.00;98166.34;4979712;28;20137;-73
2022/05/08 03:31:05;;;;;;;13.65;10.75;;;10.40;99.90;;;9.78;100.00;98170.91;4981234;28;20136;-73
2022/05/08 03:33:34;;;;;;;11.32;10.00;;;10.30;99.90;;;9.70;100.00;98167.72;4980542;28;20050;-73
2022/05/08 03:36:01;;;;;;;12.30;10.05;;;10.30;99.90;;;9.42;100.00;98161.59;4964048;28;20449;-73
2022/05/08 03:38:30;;;;;;;11.48;10.32;;;10.10;99.90;;;9.29;100.00;98170.59;4978735;28;20132;-74
2022/05/08 03:40:57;;;;;;;12.40;10.48;;;10.00;99.90;;;9.24;100.00;98179.34;4975947;28;20089;-74
2022/05/08 03:43:25;;;;;;;14.20;10.82;;;9.90;99.90;;;9.22;100.00;98179.44;4982645;28;20727;-73
2022/05/08 03:45:52;;;;;;;13.63;10.07;;;9.90;99.90;;;9.25;100.00;98176.75;4992287;28;20046;-74
2022/05/08 03:48:20;;;;;;;13.35;11.80;;;9.80;99.90;;;9.19;100.00;98177.78;4979423;28;20128;-74
2022/05/08 03:50:47;;;;;;;14.23;10.35;;;9.90;99.90;;;9.22;100.00;98179.44;4981507;28;20063;-74
2022/05/08 03:53:15;;;;;;;13.15;10.82;;;9.80;99.90;;;9.03;100.00;98176.47;4976001;28;20130;-73
2022/05/08 03:55:42;;;;;;;16.15;11.77;;;9.70;99.90;;;9.03;100.00;98184.22;4976319;28;20054;-75
2022/05/08 03:58:09;;;;;;;14.48;11.60;;;9.70;99.90;;;9.00;100.00;98181.72;4978281;28;20390;-73
2022/05/08 04:00:37;;;;;;;12.27;10.75;;;9.70;99.90;;;9.04;100.00;98187.69;4981033;28;20125;-73
2022/05/08 04:03:04;;;;;;;13.27;11.15;;;9.70;99.90;;;9.03;100.00;98186.81;4978577;28;20077;-75
2022/05/08 04:05:31;;;;;;;13.55;11.43;;;9.70;99.90;;;9.16;100.00;98187.34;4980514;28;20065;-74
2022/05/08 04:07:58;;;;;;;15.82;12.30;;;9.70;99.90;;;9.12;100.00;98186.59;4977181;28;20772;-73
2022/05/08 04:10:25;;;;;;;13.82;12.30;;;9.70;99.90;;;9.05;100.00;98190.22;4978785;28;20129;-74
2022/05/08 04:12:52;;;;;;;15.35;11.93;;;9.70;99.90;;;9.05;100.00;98190.22;4982784;28;20458;-74
2022/05/08 04:18:07;;;;;;;13.07;11.60;;;9.70;99.90;;;9.09;100.00;98191.84;4982081;28;20050;-74
2022/05/08 04:20:34;;;;;;;13.18;11.77;;;9.70;99.90;;;9.08;100.00;98197.94;4982416;28;20126;-74
2022/05/08 04:25:54;;;;;;;12.35;11.05;;;9.70;99.90;;;9.17;100.00;98195.09;4986319;28;20486;-73
2022/05/08 04:28:22;;;;;;;14.00;11.55;;;9.80;99.90;;;9.22;100.00;98200.16;4982616;28;20059;-73
2022/05/08 04:30:50;;;;;;;17.70;12.20;;;9.80;99.90;;;9.31;100.00;98206.81;4983483;28;20046;-74
2022/05/08 04:33:21;;;;;;;15.07;10.85;;;9.90;99.90;;;9.33;100.00;98197.28;4982077;28;20042;-73
2022/05/08 04:35:48;;;;;;;13.73;11.57;;;9.90;99.90;;;9.38;100.00;98209.19;4982266;28;20109;-74
2022/05/08 04:38:15;;;;;;;14.43;12.27;;;10.00;99.90;;;9.37;100.00;98199.72;4981928;28;20523;-74
2022/05/08 04:40:42;;;;;;;13.93;12.43;;;10.00;99.90;;;9.38;100.00;98203.16;4978417;28;20142;-74
2022/05/08 04:43:09;;;;;;;15.43;12.10;;;10.00;99.90;;;9.35;100.00;98205.81;4967816;28;20101;-74
2022/05/08 04:45:37;;;;;;;13.25;11.45;;;10.10;99.90;;;9.39;100.00;98203.09;4980052;28;20136;-74
2022/05/08 04:48:05;;;;;;;14.75;12.73;;;10.00;99.90;;;9.57;100.00;98212.09;4980582;28;20105;-74
2022/05/08 04:50:32;;;;;;;13.40;11.50;;;10.10;99.90;;;9.67;100.00;98211.84;4984418;28;20060;-74
2022/05/08 04:52:59;;;;;;;18.63;11.50;;;10.20;99.90;;;9.77;100.00;98210.69;4985249;28;20125;-73
2022/05/08 04:55:25;;;;;;;15.65;11.27;;;10.40;99.90;;;9.94;100.00;98215.38;4981519;28;20490;-74
2022/05/08 04:57:53;;;;;;;14.68;11.65;;;10.50;99.90;;;10.15;100.00;98213.88;4980844;28;20047;-74
2022/05/08 05:00:20;;;;;;;17.80;11.52;;;10.60;99.90;;;10.22;100.00;98216.25;4980201;28;20087;-73
2022/05/08 05:02:47;;;;;;;15.55;11.38;;;10.80;99.90;;;10.36;100.00;98210.66;4984057;28;20084;-73
2022/05/08 05:05:14;;;;;;;13.75;11.80;;;10.90;99.90;;;10.45;100.00;98209.53;4979782;28;20419;-73
2022/05/08 05:07:41;;;;;;;16.92;11.65;;;11.00;99.90;;;10.57;100.00;98211.72;4983192;28;20137;-74
2022/05/08 05:10:10;;;;;;;15.43;11.00;;;11.20;99.90;;;10.63;100.00;98211.53;4979540;28;20051;-74
2022/05/08 05:12:39;;;;;;;14.50;11.68;;;11.30;99.90;;;10.73;100.00;98214.66;4983795;28;20101;-74
2022/05/08 05:15:07;;;;;;;13.38;10.48;;;11.40;99.90;;;10.89;100.00;98213.25;4992230;28;20074;-73
2022/05/08 05:17:35;;;;;;;14.65;10.52;;;11.50;99.90;;;10.96;100.00;98216.47;4980884;28;20129;-73
2022/05/08 05:20:03;;;;;;;13.65;10.13;;;11.60;99.90;;;11.14;100.00;98215.00;4981914;28;20074;-74
2022/05/08 05:22:30;;;;;;;12.95;10.20;;;11.80;99.90;;;11.34;100.00;98214.31;4982973;28;20136;-71
2022/05/08 05:24:58;;;;;;;13.13;10.55;;;11.90;99.90;;;11.38;100.00;98210.72;4994428;28;20088;-75
2022/05/08 05:27:26;;;;;;;13.38;10.07;;;12.00;99.90;;;11.40;100.00;98210.63;4984968;28;20081;-74
2022/05/08 05:29:53;;;;;;;13.80;10.02;;;12.10;99.90;;;11.38;100.00;98212.44;4985173;28;20084;-74
2022/05/08 05:32:21;;;;;;;15.80;10.48;;;12.10;99.90;;;11.54;100.00;98208.41;4998040;28;20624;-74
2022/05/08 05:34:49;;;;;;;14.30;10.23;;;12.20;99.90;;;11.64;100.00;98208.91;4980362;28;20411;-74
2022/05/08 05:37:21;;;;;;;11.52;9.60;;;12.30;99.90;;;11.68;100.00;98211.34;4980158;28;20134;-73
2022/05/08 05:39:49;;;;;;;13.23;9.30;;;12.40;99.90;;;11.89;100.00;98204.53;4982051;28;20117;-73
2022/05/08 05:42:16;;;;;;;12.80;9.93;;;12.50;99.90;;;11.83;100.00;98207.31;4980511;28;20835;-74
2022/05/08 05:44:43;;;;;;;16.88;10.27;;;12.60;99.90;;;11.93;100.00;98197.47;4980045;28;20546;-73
2022/05/08 05:49:55;;;;;;;12.65;8.80;;;12.80;99.90;;;12.12;100.00;98208.84;4976991;28;20141;-73
2022/05/08 05:52:23;;;;;;;14.25;10.07;;;12.90;99.90;;;12.12;100.00;98201.03;4984312;28;20050;-74
2022/05/08 05:54:50;;;;;;;11.88;8.93;;;13.00;99.90;;;12.28;100.00;98201.28;4981771;28;20061;-74
2022/05/08 05:57:20;;;;;;;14.43;9.88;;;13.10;99.90;;;12.34;100.00;98206.25;4993110;28;20044;-73
2022/05/08 05:59:46;;;;;;;12.55;8.85;;;13.10;99.90;;;12.45;100.00;98203.22;4979785;28;20070;-74
2022/05/08 06:02:13;;;;;;;11.13;9.18;;;13.20;99.90;;;12.45;100.00;98198.03;4980701;28;20101;-73
2022/05/08 06:04:40;;;;;;;13.23;9.57;;;13.30;99.90;;;12.55;100.00;98208.91;4975954;28;20550;-74
2022/05/08 06:07:08;;;;;;;13.65;9.07;;;13.40;99.90;;;12.51;100.00;98205.56;4981960;28;20167;-73
2022/05/08 06:09:34;;;;;;;12.98;8.82;;;13.40;99.90;;;12.56;100.00;98206.22;4978237;28;20050;-74
2022/05/08 06:12:03;;;;;;;12.95;9.82;;;13.50;99.90;;;12.61;100.00;98211.25;4979714;28;20129;-74
2022/05/08 06:14:30;;;;;;;12.23;9.30;;;13.50;99.90;;;12.67;100.00;98215.38;5012179;28;20050;-73
2022/05/08 06:16:58;;;;;;;16.08;9.68;;;13.60;99.90;;;12.73;100.00;98207.31;4968466;28;20046;-74
2022/05/08 06:19:25;;;;;;;11.60;9.05;;;13.60;99.90;;;12.77;100.00;98214.94;4980302;28;20106;-74
2022/05/08 06:21:52;;;;;;;11.32;8.82;;;13.70;99.90;;;12.80;100.00;98210.50;4980651;28;20082;-74
2022/05/08 06:24:20;;;;;;;12.07;8.38;;;13.80;99.90;;;13.09;100.00;98220.56;4984486;28;20429;-74
2022/05/08 06:26:47;;;;;;;18.83;8.73;;;14.00;99.90;;;13.11;100.00;98213.53;4984249;28;20053;-74
2022/05/08 06:29:15;;;;;;;9.77;8.27;;;14.10;99.90;;;13.26;100.00;98221.59;4977243;28;20174;-73
2022/05/08 06:31:42;;;;;;;13.95;8.95;;;14.10;99.90;;;13.28;100.00;98214.59;4958669;28;20173;-74
2022/05/08 06:34:16;;;;;;;14.25;8.68;;;14.20;99.90;;;13.23;100.00;98219.09;4980620;28;20188;-74
2022/05/08 06:36:44;;;;;;;14.20;9.80;;;14.20;99.90;;;13.41;100.00;98222.69;4979084;28;20055;-74
2022/05/08 06:39:13;;;;;;;13.00;9.18;;;14.30;99.90;;;13.27;100.00;98220.66;4978010;28;20105;-74
2022/05/08 06:41:41;;;;;;;14.23;9.07;;;14.30;99.90;;;13.33;100.00;98220.44;4979903;28;20042;-73
2022/05/08 06:44:08;;;;;;;12.75;8.82;;;14.30;99.90;;;13.47;100.00;98223.28;4991020;28;20461;-71
2022/05/08 06:46:36;;;;;;;12.85;8.95;;;14.40;99.90;;;13.37;100.00;98222.84;4977574;28;20092;-72
2022/05/08 06:49:05;;;;;;;13.98;9.45;;;14.50;99.90;;;13.52;100.00;98223.91;4979827;28;20046;-73
2022/05/08 06:51:34;;;;;;;10.93;9.18;;;14.50;99.90;;;13.62;100.00;98216.56;4979937;28;20046;-73
2022/05/08 06:54:01;;;;;;;11.40;8.40;;;14.60;99.90;;;13.78;100.00;98221.94;4977896;28;20042;-72
2022/05/08 06:56:31;;;;;;;10.90;8.45;;;14.70;99.90;;;13.81;100.00;98213.97;4977891;28;20051;-73
2022/05/08 07:01:43;;;;;;;13.52;8.30;;;14.90;99.90;;;14.06;100.00;98218.91;4980926;28;20042;-73
2022/05/08 07:04:11;;;;;;;11.68;8.73;;;15.00;99.90;;;14.07;100.00;98217.13;4978088;28;20046;-73
2022/05/08 07:06:40;;;;;;;12.07;8.30;;;15.00;99.90;;;13.99;100.00;98214.88;4980247;28;20136;-74
2022/05/08 07:09:13;;;;;;;10.57;8.48;;;15.00;99.90;;;14.10;100.00;98222.22;4979304;28;20412;-74
2022/05/08 07:11:41;;;;;;;10.52;8.90;;;15.00;99.90;;;14.05;100.00;98213.72;4978926;28;20038;-73
2022/05/08 07:14:09;;;;;;;11.43;8.10;;;15.00;99.90;;;14.36;100.00;98219.22;4990871;28;20173;-73
2022/05/08 07:16:36;;;;;;;11.40;8.27;;;15.20;99.90;;;14.52;100.00;98227.16;4982056;28;20062;-73
2022/05/08 07:19:04;;;;;;;12.18;8.75;;;15.30;99.90;;;14.54;100.00;98222.75;4981202;28;20042;-74
2022/05/08 07:21:30;;;;;;;10.23;7.45;;;15.40;99.90;;;14.59;100.00;98220.75;4975204;28;20134;-73
2022/05/08 07:23:57;;;;;;;13.60;8.45;;;15.50;99.90;;;14.48;100.00;98219.53;4977575;28;20108;-74
2022/05/08 07:26:24;;;;;;;14.27;7.93;;;15.50;99.90;;;14.73;100.00;98220.06;4979313;28;20046;-73
2022/05/08 07:28:51;;;;;;;9.25;6.65;;;15.60;99.90;;;14.90;100.00;98221.88;4976998;28;20086;-73
2022/05/08 07:31:18;;;;;;;8.35;6.70;;;15.70;99.90;;;15.22;100.00;98220.22;4976259;28;20093;-71
2022/05/08 07:33:46;;;;;;;9.90;7.13;;;;;;;15.26;100.00;98216.53;4980841;28;20105;-73
2022/05/08 07:36:13;;;;;;;14.43;7.53;;;16.10;99.90;;;15.04;100.00;98214.16;4980861;28;20089;-73
2022/05/08 07:38:47;;;;;;;9.85;7.45;;;16.20;99.90;;;15.26;100.00;98219.16;4978709;28;20161;-72
2022/05/08 07:41:17;;;;;;;14.38;7.35;;;16.20;99.90;;;15.36;100.00;98214.28;4978271;28;20532;-71
2022/05/08 07:43:45;;;;;;;9.43;7.25;;;16.20;99.90;;;15.61;100.00;98223.47;4979273;28;20089;-73
2022/05/08 07:46:14;;;;;;;10.63;7.18;;;16.50;99.90;;;15.65;100.00;98218.00;5008995;28;20054;-73
2022/05/08 07:48:41;;;;;;;8.73;6.80;;;16.50;99.90;;;15.64;100.00;98218.06;4982891;28;20049;-72
2022/05/08 07:51:08;;;;;;;11.00;6.60;;;16.60;99.90;;;15.60;100.00;98217.41;4981466;28;20082;-73
2022/05/08 07:53:35;;;;;;;8.70;6.00;;;16.50;99.90;;;15.77;100.00;98211.31;4986467;28;20129;-72
2022/05/08 07:56:03;;;;;;;12.48;6.10;;;16.60;99.90;;;15.71;100.00;98216.84;4982717;28;20074;-72
2022/05/08 07:58:32;;;;;;;9.15;6.20;;;16.70;99.90;;;15.93;100.00;98211.31;4983639;28;20531;-73
2022/05/08 08:01:04;;;;;;;7.93;5.78;;;16.80;99.90;;;15.75;100.00;98214.94;4984791;28;20058;-73
2022/05/08 08:03:33;;;;;;;8.57;5.63;;;16.90;99.90;;;16.08;100.00;98218.34;4985914;28;20047;-73
2022/05/08 08:06:02;;;;;;;10.95;5.97;;;17.10;99.90;;;15.97;100.00;98219.88;4981763;28;20089;-73
2022/05/08 08:08:39;;;;;;;11.98;5.57;;;17.10;99.90;;;16.20;100.00;98216.81;4982079;28;20512;-73
2022/05/08 08:11:10;;;;;;;6.75;4.53;;;17.20;99.90;;;16.40;100.00;98218.34;4976972;28;20050;-71
2022/05/08 08:13:37;;;;;;;10.88;5.18;;;17.20;99.90;;;16.37;100.00;98210.63;5013181;28;20153;-74
2022/05/08 08:16:06;;;;;;;6.72;4.93;;;17.40;99.90;;;16.57;100.00;98213.91;4982839;28;20056;-72
2022/05/08 08:18:33;;;;;;;7.88;5.35;;;17.40;99.90;;;16.69;100.00;98221.94;4977544;28;20039;-73
2022/05/08 08:21:07;;;;;;;7.88;5.13;;;17.60;99.90;;;16.83;100.00;98215.06;4979536;28;20058;-72
2022/05/08 08:23:35;;;;;;;8.55;5.95;;;17.70;99.90;;;16.72;100.00;98218.28;4977019;28;20088;-72
2022/05/08 08:26:02;;;;;;;7.47;4.82;;;17.60;99.90;;;16.96;100.00;98223.91;4978797;28;20100;-73
2022/05/08 08:28:29;;;;;;;9.02;4.88;;;17.80;99.90;;;16.97;100.00;98227.38;4965488;28;20049;-72
2022/05/08 08:30:56;;;;;;;7.35;4.70;;;18.00;99.90;;;17.28;100.00;98229.88;4983644;28;20522;-71
2022/05/08 08:33:23;;;;;;;6.65;4.30;;;18.20;99.90;;;17.66;100.00;98218.03;4982505;28;20584;-72
2022/05/08 08:35:50;;;;;;;7.43;4.97;;;18.40;99.90;;;17.67;100.00;98227.56;4980401;28;20129;-71
2022/05/08 08:38:17;;;;;;;7.13;4.78;;;18.70;99.90;;;17.51;100.00;98218.00;4979833;28;20065;-72
2022/05/08 08:40:49;;;;;;;7.90;4.10;;;18.70;99.90;;;18.02;100.00;98217.56;4983127;28;20050;-71
2022/05/08 08:43:17;;;;;;;8.52;4.30;;;19.00;99.90;;;18.05;100.00;98222.63;4982813;28;20050;-73
2022/05/08 08:48:34;;;;;;;7.88;4.20;;;19.30;99.90;;;18.61;100.00;98212.06;4982048;28;20050;-72
2022/05/08 08:51:02;;;;;;;7.38;3.83;;;19.70;99.90;;;18.52;100.00;98216.13;4980552;28;20049;-71
2022/05/08 08:53:30;;;;;;;6.93;3.95;;;19.70;99.90;;;19.21;100.00;98229.16;4981516;28;20054;-72
2022/05/08 08:56:00;;;;;;;10.98;3.40;;;20.00;99.90;;;19.93;100.00;98220.75;4979690;28;20086;-72
2022/05/08 08:58:27;;;;;;;7.10;3.42;;;20.40;99.90;;;19.46;100.00;98230.13;4978679;28;20042;-72
2022/05/08 09:00:54;;;;;;;7.75;3.85;;;20.80;99.90;;;19.63;100.00;98222.72;4981686;28;20133;-72
2022/05/08 09:03:25;;;;;;;5.47;3.60;;;20.90;99.90;;;19.18;100.00;98218.81;4982101;28;20054;-71
2022/05/08 09:05:58;;;;;;;7.70;3.58;;;20.80;99.90;;;19.68;100.00;98222.41;4984270;28;20146;-71
2022/05/08 09:08:33;;;;;;;7.05;3.67;;;20.90;99.90;;;20.31;100.00;98214.53;4977255;28;20051;-72
2022/05/08 09:11:00;;;;;;;6.28;3.08;;;20.90;99.90;;;20.72;100.00;98215.97;4981917;28;20059;-71
2022/05/08 09:13:31;;;;;;;5.75;3.08;;;21.20;99.90;;;21.70;100.00;98212.03;4982613;28;20122;-71
2022/05/08 09:16:06;;;;;;;6.63;3.20;;;21.60;99.90;;;20.77;100.00;98219.94;4979271;28;20520;-72
2022/05/08 09:18:47;;;;;;;7.90;3.75;;;21.80;99.90;;;20.92;100.00;98214.50;4984258;28;20054;-71
2022/05/08 09:24:12;;;;;;;6.18;2.85;;;21.70;99.90;;;21.66;100.00;98212.38;4984618;28;20129;-71
2022/05/08 09:26:40;;;;;;;5.43;2.53;;;22.00;99.90;;;21.99;100.00;98210.72;4983200;28;20133;-71
2022/05/08 09:29:20;;;;;;;5.90;3.05;;;22.20;99.90;;;21.12;100.00;98210.34;4978587;28;20177;-71
2022/05/08 09:31:46;;;;;;;4.60;2.38;;;22.30;99.90;;;21.47;100.00;98211.16;4977101;28;20123;-70
2022/05/08 09:34:15;;;;;;;5.53;2.95;;;22.30;99.90;;;21.50;100.00;98205.63;4981726;28;20433;-73
2022/05/08 09:36:42;;;;;;;5.53;3.55;;;22.10;99.90;;;21.43;100.00;98208.88;4996035;28;20141;-73
2022/05/08 09:39:09;;;;;;;5.32;3.40;;;21.80;99.90;;;21.26;100.00;98208.34;4980902;28;20159;-73
2022/05/08 09:41:39;;;;;;;5.38;2.42;;;21.60;99.90;;;22.04;100.00;98198.78;4978971;28;20082;-71
2022/05/08 09:44:14;;;;;;;4.25;2.42;;;22.20;99.90;;;22.60;100.00;98200.47;4979756;28;20559;-70
2022/05/08 09:46:48;;;;;;;5.25;2.30;;;22.40;99.90;;;22.38;100.00;98198.78;4980476;28;20118;-71
2022/05/08 09:49:24;;;;;;;3.88;2.67;;;22.50;99.90;;;21.90;100.00;98194.59;4978054;28;20398;-71
2022/05/08 09:51:53;;;;;;;4.13;2.28;;;22.50;99.90;;;22.39;100.00;98203.06;4980756;28;20104;-71
2022/05/08 09:54:21;;;;;;;3.30;2.03;;;23.00;99.90;;;23.17;100.00;98199.31;4978695;28;20046;-72
2022/05/08 09:56:49;;;;;;;5.38;1.95;;;23.00;99.90;;;23.78;100.00;98201.16;4976349;28;20050;-72
2022/05/08 09:59:17;;;;;;;5.30;2.17;;;23.30;99.40;;;23.55;100.00;98197.00;4979587;28;20068;-72
2022/05/08 10:01:44;;;;;;;4.90;1.83;;;23.40;96.50;;;23.56;100.00;98194.22;4981389;28;20050;-73
2022/05/08 10:04:12;;;;;;;3.42;1.88;;;23.50;96.50;;;23.50;100.00;98192.09;4983056;28;20524;-72
2022/05/08 10:06:41;;;;;;;6.07;2.20;;;23.40;96.20;;;22.83;100.00;98203.91;4979915;28;20081;-72
2022/05/08 10:14:47;;;;;;;4.57;2.00;;;23.80;93.80;;;23.79;100.00;98191.44;4976687;28;20038;-71
2022/05/08 10:17:14;;;;;;;5.80;2.53;;;23.70;94.00;;;24.02;100.00;98192.06;4981442;28;20047;-72
2022/05/08 10:19:45;;;;;;;4.50;2.40;;;23.80;94.90;;;23.07;100.00;98202.84;4969311;28;20051;-72
2022/05/08 10:22:13;;;;;;;3.58;1.90;;;23.30;95.20;;;23.14;100.00;98199.53;4959425;28;20051;-72
2022/05/08 10:24:54;;;;;;;3.05;1.92;;;23.40;93.60;;;23.74;100.00;98196.25;4980520;28;20077;-72
2022/05/08 10:27:31;;;;;;;7.27;1.90;;;23.60;92.50;;;24.52;100.00;98184.09;4981209;28;20412;-73
2022/05/08 10:29:57;;;;;;;3.20;1.75;;;24.40;93.30;;;24.16;100.00;98189.03;4980359;28;20396;-72
2022/05/08 10:32:31;;;;;;;5.32;2.13;;;24.80;93.40;;;24.34;100.00;98189.19;4977373;28;20042;-72
2022/05/08 10:35:17;;;;;;;4.75;1.50;;;25.00;93.40;;;24.48;100.00;98190.66;4972822;28;20068;-72
2022/05/08 10:37:53;;;;;;;8.48;1.52;;;24.70;91.00;;;24.60;96.83;98188.69;4976075;28;20070;-72
2022/05/08 10:40:23;;;;;;;3.05;0.90;;;24.80;86.80;;;26.19;100.00;98180.06;4978446;28;20061;-71
2022/05/08 10:42:58;;;;;;;4.03;1.17;;;25.60;90.70;;;24.91;94.02;98191.22;4980110;28;20085;-70
2022/05/08 10:45:36;;;;;;;3.22;0.95;;;25.20;85.60;;;25.85;88.90;98175.31;4982015;28;20150;-71